Greenville, South Carolina
Current Conditions -  °F | °C
As of 1:53 AM on Wednesday 22 Oct 2014 (Local Time) from KGMU Reporting Station
Clear Clear  
Wind Chill: 54°   Ceiling: Unl
Heat Index: 54°   Visibility: 10mi
Dew Point: 35°   Wind: 14mph
Humidity: 49%   Direction: 350°N
Pressure: 30"   Gusts: 26mph
Location:  34.85°N, 82.4°W
Report Text: KGMU 220553Z AUTO 35012G23KT 10SM CLR 12/02 A3000 RMK AO2 SLP152 T01220017 10167 20117 58002
Loading
Personal Weather Stations






























Interactive Weather Map
Tropical Storm Tracking
New forecast layout! Learn more

10-Day Weather Forecast

Advertisements
Track Severe Weather on mobile